Time;durP1;ratioP1;P1;durP2;ratioP2;P2;SDS_P1;SDS_P2;PMS_P1;PMS_P2;Temp;Humidity;BMP_temperature;BMP_pressure;BME280_temperature;BME280_humidity;BME280_pressure;Samples;Min_cycle;Max_cycle;Signal;HPM_P1;HPM_P2
2021/12/24 00:01:50;;;;;;;107.13;28.13;;;6.80;99.90;;;;;;6187332;23;20032;-86
2021/12/24 00:04:16;;;;;;;111.25;26.83;;;6.80;99.90;;;;;;6162765;23;20408;-85
2021/12/24 00:06:42;;;;;;;115.05;28.33;;;6.80;99.90;;;;;;6162751;23;20021;-86
2021/12/24 00:09:08;;;;;;;112.85;28.55;;;6.80;99.90;;;;;;6187597;23;20021;-86
2021/12/24 00:11:35;;;;;;;134.73;31.83;;;6.80;99.90;;;;;;6214590;23;20025;-86
2021/12/24 00:14:04;;;;;;;115.38;29.10;;;6.80;99.90;;;;;;6214233;23;20461;-86
2021/12/24 00:16:42;;;;;;;118.13;30.42;;;6.90;99.90;;;;;;6162234;23;20031;-85
2021/12/24 00:19:35;;;;;;;141.43;31.45;;;6.90;99.90;;;;;;6213555;23;20089;-85
2021/12/24 00:35:02;;;;;;;144.98;30.23;;;6.90;99.90;;;;;;6197289;23;20399;-85
2021/12/24 00:36:19;;;;;;;172.40;32.53;;;6.80;99.90;;;;;;6214323;23;20111;-86
2021/12/24 00:38:45;;;;;;;154.50;30.23;;;6.80;99.90;;;;;;6214009;23;20043;-86
2021/12/24 00:41:13;;;;;;;139.50;29.75;;;6.80;99.90;;;;;;6187133;23;20024;-86
2021/12/24 00:43:39;;;;;;;146.05;30.85;;;6.80;99.90;;;;;;6162143;23;20401;-86
2021/12/24 00:46:06;;;;;;;155.20;32.42;;;6.80;99.90;;;;;;6162145;23;20078;-86
2021/12/24 00:48:32;;;;;;;164.52;31.88;;;6.80;99.90;;;;;;6186720;23;20075;-85
2021/12/24 00:56:12;;;;;;;169.98;33.22;;;6.90;99.90;;;;;;6187052;23;20105;-85
2021/12/24 00:58:38;;;;;;;174.27;31.75;;;6.80;99.90;;;;;;6186827;23;20040;-85
2021/12/24 01:01:06;;;;;;;184.77;33.55;;;6.80;99.90;;;;;;6186470;23;20029;-85
2021/12/24 01:03:32;;;;;;;177.60;32.95;;;6.80;99.90;;;;;;6187268;23;20021;-85
2021/12/24 01:05:58;;;;;;;187.43;33.47;;;6.70;99.90;;;;;;6212213;23;20067;-85
2021/12/24 01:08:24;;;;;;;163.07;32.15;;;6.80;99.90;;;;;;6187018;23;20020;-86
2021/12/24 01:10:53;;;;;;;204.77;35.78;;;6.70;99.90;;;;;;6213747;23;20021;-86
2021/12/24 01:13:19;;;;;;;209.18;36.08;;;6.70;99.90;;;;;;6186966;23;20031;-86
2021/12/24 01:18:28;;;;;;;203.23;34.72;;;6.70;99.90;;;;;;6191083;23;20024;-84
2021/12/24 01:21:09;;;;;;;177.43;34.40;;;6.80;99.90;;;;;;6219975;23;20029;-85
2021/12/24 01:26:11;;;;;;;193.68;36.42;;;6.70;99.90;;;;;;6186527;23;20029;-86
2021/12/24 01:29:00;;;;;;;158.25;31.75;;;6.70;99.90;;;;;;6187003;23;20379;-85
2021/12/24 01:45:00;;;;;;;119.07;30.58;;;6.80;99.90;;;;;;6188823;23;20025;-86
2021/12/24 01:47:27;;;;;;;138.77;32.55;;;6.80;99.90;;;;;;6188934;23;20107;-85
2021/12/24 01:49:53;;;;;;;128.27;31.15;;;6.90;99.90;;;;;;6216134;23;20155;-85
2021/12/24 01:52:19;;;;;;;142.43;32.13;;;6.90;99.90;;;;;;6193638;23;20385;-86
2021/12/24 01:54:46;;;;;;;128.13;29.63;;;6.80;99.90;;;;;;6191753;23;20040;-86
2021/12/24 01:57:12;;;;;;;103.10;27.58;;;6.80;99.90;;;;;;6188299;23;20021;-86
2021/12/24 01:59:40;;;;;;;110.57;27.45;;;6.90;99.90;;;;;;6163902;23;20452;-85
2021/12/24 02:02:06;;;;;;;97.82;25.42;;;6.80;99.90;;;;;;6188666;23;20020;-86
2021/12/24 02:04:33;;;;;;;82.63;23.42;;;6.90;99.90;;;;;;6188143;23;20326;-86
2021/12/24 02:06:59;;;;;;;102.90;25.38;;;6.90;99.90;;;;;;6163668;23;20028;-85
2021/12/24 02:09:25;;;;;;;89.45;21.75;;;6.90;99.90;;;;;;6188764;23;20033;-86
2021/12/24 02:11:52;;;;;;;82.85;21.95;;;6.90;99.90;;;;;;6213790;23;20086;-86
2021/12/24 02:14:22;;;;;;;81.28;21.05;;;6.90;99.90;;;;;;6213713;23;20024;-85
2021/12/24 02:30:12;;;;;;;77.82;19.83;;;6.90;99.90;;;;;;6189005;23;20024;-86
2021/12/24 02:32:42;;;;;;;72.65;21.02;;;6.90;99.90;;;;;;6188442;23;20104;-86
2021/12/24 02:35:09;;;;;;;90.60;20.05;;;6.90;99.90;;;;;;6188637;23;20048;-85
2021/12/24 02:37:35;;;;;;;95.68;20.45;;;6.90;99.90;;;;;;6188204;23;20400;-86
2021/12/24 02:40:05;;;;;;;72.78;20.02;;;6.90;99.90;;;;;;6215329;23;20035;-86
2021/12/24 02:42:33;;;;;;;91.25;21.25;;;6.90;99.90;;;;;;6188036;23;20020;-86
2021/12/24 02:44:59;;;;;;;79.53;20.63;;;6.90;99.90;;;;;;6188568;23;20048;-86
2021/12/24 02:55:27;;;;;;;91.68;21.50;;;7.00;99.90;;;;;;6188214;23;20090;-85
2021/12/24 02:57:52;;;;;;;92.00;24.00;;;7.00;99.90;;;;;;6187550;23;20017;-86
2021/12/24 03:00:26;;;;;;;90.95;24.25;;;7.00;99.90;;;;;;6215438;23;20024;-86
2021/12/24 03:02:53;;;;;;;87.88;23.83;;;7.00;99.90;;;;;;6188166;23;20020;-86
2021/12/24 03:05:21;;;;;;;89.20;24.80;;;7.10;99.90;;;;;;6187557;23;20047;-86
2021/12/24 03:07:47;;;;;;;90.03;23.60;;;7.10;99.90;;;;;;6214839;23;20110;-86
2021/12/24 03:10:19;;;;;;;72.10;22.73;;;7.10;99.90;;;;;;6187393;23;20016;-86
2021/12/24 03:12:47;;;;;;;76.68;21.35;;;7.10;99.90;;;;;;6187879;23;20064;-86
2021/12/24 03:15:17;;;;;;;84.40;23.52;;;7.10;99.90;;;;;;6188183;23;20099;-86
2021/12/24 03:17:49;;;;;;;80.78;23.73;;;7.20;99.90;;;;;;6213245;23;20025;-87
2021/12/24 03:20:14;;;;;;;93.10;25.77;;;7.20;99.90;;;;;;6213144;23;20029;-86
2021/12/24 03:25:24;;;;;;;109.55;27.77;;;7.20;99.90;;;;;;6192181;23;20028;-86
2021/12/24 03:27:50;;;;;;;127.43;27.38;;;7.20;99.90;;;;;;6212363;23;20028;-85
2021/12/24 03:30:16;;;;;;;125.25;29.50;;;7.20;99.90;;;;;;6214506;23;20024;-86
2021/12/24 03:32:41;;;;;;;137.57;29.83;;;7.20;99.90;;;;;;6187668;23;20106;-86
2021/12/24 03:35:14;;;;;;;163.85;33.70;;;7.30;99.90;;;;;;6187309;23;20031;-86
2021/12/24 03:37:40;;;;;;;163.65;32.53;;;7.30;99.90;;;;;;6187789;23;20024;-87
2021/12/24 03:40:06;;;;;;;168.85;32.75;;;7.30;99.90;;;;;;6162789;23;20349;-86
2021/12/24 03:42:36;;;;;;;147.07;30.50;;;7.30;99.90;;;;;;6187880;23;20079;-86
2021/12/24 03:45:18;;;;;;;158.45;31.85;;;7.30;99.90;;;;;;6187718;23;20032;-86
2021/12/24 03:47:51;;;;;;;169.98;32.25;;;7.30;99.90;;;;;;6162736;23;20067;-86
2021/12/24 03:50:17;;;;;;;178.45;32.95;;;7.30;99.90;;;;;;6188534;23;20098;-85
2021/12/24 03:53:05;;;;;;;229.63;36.97;;;7.40;99.90;;;;;;6191312;23;20500;-86
2021/12/24 03:55:31;;;;;;;213.57;34.55;;;7.30;99.90;;;;;;6162251;23;20028;-86
2021/12/24 03:58:04;;;;;;;198.63;35.50;;;7.30;99.90;;;;;;6187136;23;20025;-86
2021/12/24 04:00:32;;;;;;;201.73;38.00;;;7.30;99.90;;;;;;6213634;23;20079;-85
2021/12/24 04:02:57;;;;;;;226.02;36.10;;;7.40;99.90;;;;;;6214472;23;20095;-85
2021/12/24 04:05:23;;;;;;;202.32;35.35;;;7.30;99.90;;;;;;6187747;23;20063;-86
2021/12/24 04:07:49;;;;;;;161.70;30.95;;;7.30;99.90;;;;;;6187421;23;20032;-86
2021/12/24 04:13:00;;;;;;;194.15;34.95;;;7.30;99.90;;;;;;6187432;23;20457;-86
2021/12/24 04:15:25;;;;;;;172.70;33.33;;;7.30;99.90;;;;;;6187577;23;20091;-86
2021/12/24 04:17:51;;;;;;;164.05;33.78;;;7.30;99.90;;;;;;6186280;23;20025;-85
2021/12/24 04:25:51;;;;;;;140.70;29.83;;;7.40;99.90;;;;;;6214821;23;20024;-85
2021/12/24 04:28:17;;;;;;;136.13;31.52;;;7.40;99.90;;;;;;6186921;23;20016;-86
2021/12/24 04:30:48;;;;;;;142.25;34.25;;;7.40;99.90;;;;;;6187282;23;20472;-86
2021/12/24 04:33:24;;;;;;;152.93;35.95;;;7.40;99.90;;;;;;6187455;23;20029;-86
2021/12/24 04:35:59;;;;;;;145.43;36.92;;;7.50;99.90;;;;;;6187350;23;20039;-86
2021/12/24 04:38:35;;;;;;;157.00;41.30;;;7.50;99.90;;;;;;6214264;23;20069;-86
2021/12/24 04:52:04;;;;;;;142.95;40.38;;;7.70;99.90;;;;;;6213862;23;20271;-86
2021/12/24 05:03:48;;;;;;;132.18;38.00;;;7.70;99.90;;;;;;6188316;23;20091;-86
2021/12/24 05:05:52;;;;;;;126.07;34.47;;;7.60;99.90;;;;;;6164608;23;20456;-84
2021/12/24 05:08:27;;;;;;;146.52;37.75;;;7.60;99.90;;;;;;6186793;23;20463;-86
2021/12/24 05:10:53;;;;;;;131.98;37.15;;;7.60;99.90;;;;;;6186898;23;20047;-86
2021/12/24 05:13:22;;;;;;;137.85;34.83;;;7.60;99.90;;;;;;6213746;23;20064;-84
2021/12/24 05:15:52;;;;;;;124.38;37.85;;;7.60;99.90;;;;;;6186907;23;20025;-85
2021/12/24 05:21:35;;;;;;;141.07;38.28;;;7.70;99.90;;;;;;6097274;23;20051;-85
2021/12/24 05:24:13;;;;;;;151.57;42.28;;;7.60;99.90;;;;;;6097176;23;20108;-86
2021/12/24 05:26:45;;;;;;;159.27;38.47;;;7.60;99.90;;;;;;6073572;23;20026;-85
2021/12/24 05:29:13;;;;;;;122.32;36.03;;;7.60;99.90;;;;;;6097142;23;20022;-86
2021/12/24 05:31:39;;;;;;;124.63;37.30;;;7.60;99.90;;;;;;6097184;23;20058;-85
2021/12/24 05:34:05;;;;;;;123.57;36.20;;;7.70;99.90;;;;;;6074532;23;20029;-84
2021/12/24 05:36:31;;;;;;;125.60;32.40;;;7.70;99.90;;;;;;6098942;23;20026;-85
2021/12/24 05:38:57;;;;;;;118.13;32.25;;;7.70;99.90;;;;;;6121510;23;20038;-85
2021/12/24 05:41:23;;;;;;;104.45;30.08;;;7.70;99.90;;;;;;6097215;23;20032;-86
2021/12/24 05:43:50;;;;;;;98.95;29.73;;;7.80;99.90;;;;;;6121591;23;20026;-84
2021/12/24 05:46:16;;;;;;;86.65;27.13;;;7.80;99.90;;;;;;6121622;23;20100;-86
2021/12/24 05:48:43;;;;;;;86.30;27.50;;;7.70;99.90;;;;;;6096995;23;20038;-85
2021/12/24 05:51:10;;;;;;;82.97;25.40;;;7.70;99.90;;;;;;6073420;23;20026;-85
2021/12/24 05:53:37;;;;;;;99.82;27.83;;;7.60;99.90;;;;;;6096950;23;20196;-85
2021/12/24 05:56:04;;;;;;;94.00;25.52;;;7.50;99.90;;;;;;6145660;23;20387;-85
2021/12/24 05:58:35;;;;;;;111.70;28.15;;;7.50;99.90;;;;;;6186563;23;20100;-85
2021/12/24 06:01:01;;;;;;;91.00;25.88;;;7.40;99.90;;;;;;6186686;23;20028;-86
2021/12/24 06:03:27;;;;;;;83.20;25.08;;;7.50;99.90;;;;;;6187397;23;20021;-86
2021/12/24 06:05:53;;;;;;;88.32;26.80;;;7.50;99.90;;;;;;6187339;23;20487;-85
2021/12/24 06:08:19;;;;;;;93.15;25.77;;;7.40;99.90;;;;;;6163610;23;20024;-86
2021/12/24 06:10:44;;;;;;;60.58;17.33;;;7.30;99.90;;;;;;6186911;23;20028;-85
2021/12/24 06:13:13;;;;;;;49.75;15.95;;;7.30;99.90;;;;;;6186968;23;20063;-85
2021/12/24 06:15:54;;;;;;;39.63;12.48;;;7.30;99.90;;;;;;6100686;23;20085;-86
2021/12/24 06:18:32;;;;;;;51.72;13.30;;;7.20;99.90;;;;;;6121278;23;20032;-85
2021/12/24 06:21:03;;;;;;;47.30;13.27;;;7.20;99.90;;;;;;6072874;23;20037;-85
2021/12/24 06:23:30;;;;;;;49.53;12.75;;;7.20;99.90;;;;;;6122184;23;20022;-85
2021/12/24 06:25:58;;;;;;;59.40;13.73;;;7.20;99.90;;;;;;6122578;23;20026;-86
2021/12/24 06:28:24;;;;;;;61.03;15.20;;;7.10;99.90;;;;;;6098657;23;20026;-86
2021/12/24 06:30:51;;;;;;;111.45;19.25;;;7.10;99.90;;;;;;6122165;23;20097;-85
2021/12/24 06:33:17;;;;;;;102.90;16.25;;;6.90;99.90;;;;;;6122081;23;20033;-84
2021/12/24 06:35:43;;;;;;;104.00;15.13;;;6.90;99.90;;;;;;6074924;23;20086;-85
2021/12/24 06:38:10;;;;;;;86.72;14.10;;;6.80;99.90;;;;;;6082006;23;20029;-85
2021/12/24 06:40:36;;;;;;;99.68;14.55;;;6.80;99.90;;;;;;6102879;23;20026;-85
2021/12/24 06:43:03;;;;;;;114.80;14.07;;;6.80;99.90;;;;;;6123295;23;20026;-85
2021/12/24 06:45:29;;;;;;;66.50;9.98;;;6.80;99.90;;;;;;6072941;23;20026;-85
2021/12/24 06:47:58;;;;;;;65.13;11.25;;;6.80;99.90;;;;;;6183483;23;20024;-86
2021/12/24 06:50:25;;;;;;;36.58;7.90;;;6.80;99.90;;;;;;6139380;23;20028;-86
2021/12/24 06:52:51;;;;;;;44.42;7.90;;;6.70;99.90;;;;;;6188134;23;20132;-85
2021/12/24 06:55:17;;;;;;;38.70;6.75;;;6.80;99.90;;;;;;6186877;23;20024;-86
2021/12/24 06:57:46;;;;;;;79.18;10.00;;;6.70;99.90;;;;;;6188173;23;20048;-85
2021/12/24 07:00:20;;;;;;;171.45;13.70;;;6.70;99.90;;;;;;6187773;23;20056;-86
2021/12/24 07:02:47;;;;;;;99.03;10.55;;;6.70;99.90;;;;;;6188560;23;20518;-85
2021/12/24 07:05:14;;;;;;;121.18;12.93;;;6.60;99.90;;;;;;6188636;23;20341;-85
2021/12/24 07:07:39;;;;;;;88.63;12.18;;;6.50;99.90;;;;;;6214800;23;20066;-85
2021/12/24 07:10:09;;;;;;;53.83;8.15;;;6.50;99.90;;;;;;6163839;23;20025;-86
2021/12/24 07:12:35;;;;;;;51.70;9.85;;;6.50;99.90;;;;;;6195524;23;20017;-85
2021/12/24 07:15:01;;;;;;;32.70;8.15;;;6.50;99.90;;;;;;6189348;23;20095;-85
2021/12/24 07:17:27;;;;;;;33.58;8.32;;;6.50;99.90;;;;;;6187881;23;20472;-85
2021/12/24 07:20:01;;;;;;;38.83;9.15;;;6.50;99.90;;;;;;6183046;23;20021;-85
2021/12/24 07:22:32;;;;;;;47.28;10.35;;;6.50;99.90;;;;;;6183185;23;20021;-85
2021/12/24 07:24:58;;;;;;;64.68;11.60;;;6.60;99.90;;;;;;6183205;23;20032;-86
2021/12/24 07:27:23;;;;;;;77.28;13.20;;;6.60;99.90;;;;;;6209029;23;20017;-85
2021/12/24 07:29:49;;;;;;;60.72;12.23;;;6.60;99.90;;;;;;6188060;23;20035;-85
2021/12/24 07:32:15;;;;;;;45.65;10.05;;;6.60;99.90;;;;;;6188144;23;20032;-85
2021/12/24 07:34:41;;;;;;;46.42;10.43;;;6.60;99.90;;;;;;6188021;23;20026;-86
2021/12/24 07:37:06;;;;;;;33.72;9.23;;;6.60;99.90;;;;;;6188112;23;20453;-85
2021/12/24 07:39:32;;;;;;;40.90;9.50;;;6.60;99.90;;;;;;6214730;23;20028;-85
2021/12/24 07:41:58;;;;;;;46.08;10.80;;;6.60;99.90;;;;;;6188273;23;20078;-86
2021/12/24 07:44:24;;;;;;;39.22;7.78;;;6.60;99.90;;;;;;6188366;23;20024;-85
2021/12/24 07:46:53;;;;;;;35.88;8.35;;;6.60;99.90;;;;;;6188219;23;20020;-84
2021/12/24 07:52:00;;;;;;;29.38;7.80;;;6.60;99.90;;;;;;6221595;23;20031;-84
2021/12/24 07:54:26;;;;;;;33.95;7.55;;;6.60;99.90;;;;;;6187506;23;20100;-85
2021/12/24 07:56:52;;;;;;;27.08;7.35;;;6.60;99.90;;;;;;6188090;23;20021;-85
2021/12/24 07:59:18;;;;;;;26.67;8.07;;;6.60;99.90;;;;;;6214704;23;20020;-85
2021/12/24 08:01:45;;;;;;;37.53;9.25;;;6.60;99.90;;;;;;6187524;23;20028;-85
2021/12/24 08:04:11;;;;;;;41.05;10.27;;;6.60;99.90;;;;;;6188180;23;20036;-85
2021/12/24 08:06:37;;;;;;;35.58;9.85;;;6.60;99.90;;;;;;6187843;23;20392;-84
2021/12/24 08:09:06;;;;;;;55.00;12.18;;;6.60;99.90;;;;;;6187918;23;20032;-85
2021/12/24 08:11:33;;;;;;;43.95;11.50;;;6.60;99.90;;;;;;6162800;23;20027;-86
2021/12/24 08:14:01;;;;;;;45.47;11.68;;;6.70;99.90;;;;;;6163510;23;20119;-84
2021/12/24 08:16:29;;;;;;;41.10;11.15;;;6.70;99.90;;;;;;6213628;23;20032;-85
2021/12/24 08:18:55;;;;;;;46.88;12.63;;;6.70;99.90;;;;;;6188125;23;20024;-84
2021/12/24 08:21:21;;;;;;;38.17;11.73;;;6.70;99.90;;;;;;6187914;23;20056;-86
2021/12/24 08:23:47;;;;;;;46.67;11.13;;;6.70;99.90;;;;;;6215573;23;20028;-85
2021/12/24 08:26:13;;;;;;;39.70;11.80;;;6.70;99.90;;;;;;6192743;23;20507;-85
2021/12/24 08:28:40;;;;;;;43.80;11.52;;;6.70;99.90;;;;;;6214253;23;20464;-85
2021/12/24 08:31:06;;;;;;;50.17;12.02;;;6.70;99.90;;;;;;6186747;23;20028;-85
2021/12/24 08:33:34;;;;;;;36.45;11.00;;;6.70;99.90;;;;;;6212783;23;20070;-86
2021/12/24 08:36:01;;;;;;;39.05;10.77;;;6.70;99.90;;;;;;6162373;23;20028;-86
2021/12/24 08:38:26;;;;;;;41.97;11.25;;;6.70;99.90;;;;;;6161916;23;20031;-85
2021/12/24 08:40:54;;;;;;;26.00;10.35;;;6.80;99.90;;;;;;6187252;23;20021;-85
2021/12/24 08:43:19;;;;;;;30.52;9.88;;;6.80;99.90;;;;;;6187393;23;20020;-85
2021/12/24 08:45:45;;;;;;;34.35;11.13;;;6.80;99.90;;;;;;6212454;23;20078;-86
2021/12/24 08:48:11;;;;;;;27.83;10.32;;;6.70;99.90;;;;;;6187553;23;20021;-86
2021/12/24 08:50:37;;;;;;;27.13;10.43;;;6.70;99.90;;;;;;6187272;23;20127;-85
2021/12/24 08:53:06;;;;;;;22.05;8.38;;;6.70;99.90;;;;;;6187481;23;20096;-86
2021/12/24 08:55:31;;;;;;;18.60;8.02;;;6.60;99.90;;;;;;6148646;23;20040;-86
2021/12/24 08:57:57;;;;;;;20.65;7.70;;;6.50;99.90;;;;;;6178939;23;20024;-86
2021/12/24 09:00:23;;;;;;;19.40;7.53;;;6.50;99.90;;;;;;6133199;23;20033;-86
2021/12/24 09:02:49;;;;;;;18.40;7.60;;;6.40;99.90;;;;;;6186406;23;20017;-86
2021/12/24 09:05:15;;;;;;;19.60;8.50;;;6.30;99.90;;;;;;6159048;23;20397;-85
2021/12/24 09:07:42;;;;;;;17.40;7.32;;;6.30;99.90;;;;;;6157349;23;20125;-85
2021/12/24 09:10:10;;;;;;;18.27;7.57;;;6.30;99.90;;;;;;6156984;23;20353;-86
2021/12/24 09:12:37;;;;;;;24.15;9.68;;;6.20;99.90;;;;;;6157728;23;20110;-86
2021/12/24 09:15:04;;;;;;;17.13;7.72;;;6.30;99.90;;;;;;6157650;23;20032;-86
2021/12/24 09:17:31;;;;;;;24.60;8.88;;;6.20;99.90;;;;;;6156641;23;20457;-86
2021/12/24 09:19:57;;;;;;;30.50;10.68;;;6.20;99.90;;;;;;6134807;23;20041;-85
2021/12/24 09:22:29;;;;;;;33.97;11.20;;;6.20;99.90;;;;;;6186702;23;20028;-85
2021/12/24 09:24:56;;;;;;;24.08;9.07;;;6.20;99.90;;;;;;6133660;23;20021;-85
2021/12/24 09:27:24;;;;;;;17.30;6.90;;;6.10;99.90;;;;;;6158066;23;20025;-87
2021/12/24 09:29:50;;;;;;;14.65;4.95;;;6.10;99.90;;;;;;6157607;23;20075;-87
2021/12/24 09:32:16;;;;;;;12.88;3.92;;;6.10;99.90;;;;;;6157669;23;20032;-85
2021/12/24 09:34:42;;;;;;;11.90;3.50;;;6.10;99.90;;;;;;6182505;23;20025;-86
2021/12/24 09:37:08;;;;;;;7.18;2.42;;;6.10;99.90;;;;;;6133514;23;20025;-86
2021/12/24 09:39:34;;;;;;;6.28;1.90;;;6.10;99.90;;;;;;6158418;23;20106;-85
2021/12/24 09:42:04;;;;;;;5.95;1.90;;;6.10;99.90;;;;;;6160059;23;20025;-86
2021/12/24 09:44:37;;;;;;;4.35;1.58;;;6.10;99.90;;;;;;6165715;23;20036;-86
2021/12/24 09:47:03;;;;;;;6.22;2.08;;;6.10;99.90;;;;;;6160581;23;20017;-88
2021/12/24 09:49:29;;;;;;;7.75;3.08;;;6.10;99.90;;;;;;6182556;23;20033;-84
2021/12/24 09:51:56;;;;;;;6.55;3.58;;;6.00;99.90;;;;;;6184747;23;20378;-86
2021/12/24 09:54:25;;;;;;;8.60;4.63;;;6.00;99.90;;;;;;6156791;23;20461;-87
2021/12/24 09:56:53;;;;;;;12.05;4.68;;;6.00;99.90;;;;;;6187214;23;20457;-86
2021/12/24 09:59:19;;;;;;;9.40;4.80;;;5.90;99.90;;;;;;6188883;23;20448;-86
2021/12/24 10:01:59;;;;;;;14.57;5.28;;;5.90;99.90;;;;;;6215878;23;20032;-86
2021/12/24 10:04:28;;;;;;;12.13;4.75;;;5.90;99.90;;;;;;6189411;23;20020;-86
2021/12/24 10:07:00;;;;;;;15.23;5.50;;;5.90;99.90;;;;;;6188801;23;20025;-87
2021/12/24 10:09:58;;;;;;;16.13;6.80;;;5.90;99.90;;;;;;6164032;23;20472;-87
2021/12/24 10:12:26;;;;;;;16.77;7.38;;;5.80;99.90;;;;;;6187630;23;20024;-86
2021/12/24 10:14:58;;;;;;;18.65;8.02;;;5.80;99.90;;;;;;6188556;23;20100;-86
2021/12/24 10:17:29;;;;;;;17.67;8.30;;;5.80;99.90;;;;;;6189022;23;20024;-86
2021/12/24 10:20:09;;;;;;;16.20;8.35;;;5.80;99.90;;;;;;6189185;23;20055;-85
2021/12/24 10:22:53;;;;;;;21.50;9.05;;;5.80;99.90;;;;;;6215755;23;20107;-85
2021/12/24 10:25:30;;;;;;;22.42;9.80;;;5.80;99.90;;;;;;6190471;23;20107;-85
2021/12/24 10:28:08;;;;;;;16.45;8.13;;;5.80;99.90;;;;;;6193470;23;20020;-87
2021/12/24 10:30:40;;;;;;;23.15;7.95;;;5.90;99.90;;;;;;6172196;23;20024;-85
2021/12/24 10:33:10;;;;;;;19.63;8.90;;;5.80;99.90;;;;;;6198347;23;20028;-86
2021/12/24 10:35:38;;;;;;;16.63;8.75;;;5.80;99.90;;;;;;6189325;23;20028;-88
2021/12/24 10:38:28;;;;;;;20.95;8.32;;;5.80;99.90;;;;;;6190266;23;20074;-86
2021/12/24 10:40:59;;;;;;;20.52;9.70;;;5.80;99.90;;;;;;6188836;23;20452;-86
2021/12/24 10:43:33;;;;;;;21.63;9.40;;;5.80;99.90;;;;;;6188697;23;20095;-85
2021/12/24 10:46:12;;;;;;;23.77;9.95;;;5.80;99.90;;;;;;6163799;23;20408;-86
2021/12/24 10:48:46;;;;;;;23.27;9.95;;;5.80;99.90;;;;;;6188481;23;20309;-86
2021/12/24 10:51:20;;;;;;;21.88;9.90;;;5.80;99.90;;;;;;6188546;23;20025;-86
2021/12/24 10:54:06;;;;;;;15.18;8.73;;;5.80;99.90;;;;;;6163487;23;20028;-86
2021/12/24 10:56:32;;;;;;;15.60;8.05;;;5.80;99.90;;;;;;6215553;23;20025;-86
2021/12/24 10:58:58;;;;;;;23.27;10.05;;;5.80;99.90;;;;;;6213711;23;20023;-86
2021/12/24 11:01:24;;;;;;;27.33;10.57;;;5.90;99.90;;;;;;6187837;23;20076;-86
2021/12/24 11:03:50;;;;;;;17.08;8.40;;;5.90;99.90;;;;;;6188268;23;20020;-85
2021/12/24 11:06:16;;;;;;;23.80;10.40;;;5.90;99.90;;;;;;6213787;23;20369;-85
2021/12/24 11:08:43;;;;;;;21.23;8.52;;;6.00;99.90;;;;;;6163666;23;20110;-86
2021/12/24 11:11:15;;;;;;;18.55;8.93;;;6.00;99.90;;;;;;6215583;23;20380;-85
2021/12/24 11:13:43;;;;;;;17.60;8.38;;;6.00;99.90;;;;;;6163643;23;20028;-86
2021/12/24 11:16:21;;;;;;;29.00;9.88;;;6.00;99.90;;;;;;6188562;23;20077;-85
2021/12/24 11:18:56;;;;;;;22.05;9.63;;;6.00;99.90;;;;;;6187927;23;20024;-86
2021/12/24 11:21:26;;;;;;;19.23;10.18;;;6.00;99.90;;;;;;6215137;23;20405;-86
2021/12/24 11:23:53;;;;;;;23.70;10.40;;;6.00;99.90;;;;;;6162267;23;20020;-86
2021/12/24 11:26:34;;;;;;;20.98;8.70;;;6.10;99.90;;;;;;6163703;23;20024;-86
2021/12/24 11:29:00;;;;;;;21.95;9.43;;;6.10;99.90;;;;;;6164024;23;20075;-85
2021/12/24 11:31:47;;;;;;;17.63;8.45;;;6.10;99.90;;;;;;6131696;23;20683;-86
2021/12/24 11:34:13;;;;;;;17.02;7.55;;;6.10;99.90;;;;;;6128443;23;20025;-86
2021/12/24 11:36:39;;;;;;;19.02;8.55;;;6.10;99.90;;;;;;6132752;23;20028;-86
2021/12/24 11:39:08;;;;;;;19.13;7.95;;;6.10;99.90;;;;;;6129343;23;20398;-86
2021/12/24 11:41:36;;;;;;;18.55;9.10;;;6.10;99.90;;;;;;6127364;23;20030;-86
2021/12/24 11:44:06;;;;;;;16.95;7.47;;;6.10;99.90;;;;;;6103371;23;20022;-86
2021/12/24 11:46:34;;;;;;;15.90;6.97;;;6.10;99.90;;;;;;6127505;23;20096;-86
2021/12/24 11:49:00;;;;;;;13.13;5.13;;;6.10;99.90;;;;;;6127692;23;20035;-86
2021/12/24 11:51:29;;;;;;;8.88;3.50;;;6.10;99.90;;;;;;6127545;23;20424;-86
2021/12/24 11:54:00;;;;;;;9.38;3.95;;;6.10;99.90;;;;;;6127745;23;20060;-86
2021/12/24 11:56:26;;;;;;;6.28;3.00;;;6.10;99.90;;;;;;6126293;23;20029;-86
2021/12/24 11:58:58;;;;;;;6.60;3.30;;;6.10;99.90;;;;;;6127365;23;20057;-85
2021/12/24 12:01:30;;;;;;;7.90;3.42;;;6.20;99.90;;;;;;6127174;23;20240;-85
2021/12/24 12:03:59;;;;;;;10.98;2.55;;;6.30;99.90;;;;;;6161677;23;20021;-86
2021/12/24 12:06:25;;;;;;;3.33;1.10;;;6.30;99.90;;;;;;6188149;23;20029;-86
2021/12/24 12:08:50;;;;;;;4.63;1.13;;;6.40;99.90;;;;;;6188248;23;20445;-85
2021/12/24 12:11:39;;;;;;;4.32;0.93;;;6.40;99.90;;;;;;6187998;23;20017;-85
2021/12/24 12:14:11;;;;;;;5.03;1.00;;;6.50;99.90;;;;;;6187333;23;20047;-84
2021/12/24 12:16:43;;;;;;;4.47;0.90;;;6.50;99.90;;;;;;6187778;23;20546;-86
2021/12/24 12:19:30;;;;;;;5.00;0.95;;;6.60;99.90;;;;;;6187695;23;20034;-85
2021/12/24 12:25:03;;;;;;;2.63;0.90;;;6.60;99.90;;;;;;6187497;23;20077;-85
2021/12/24 12:27:34;;;;;;;6.30;0.90;;;6.60;99.90;;;;;;6187812;23;20028;-85
2021/12/24 12:30:28;;;;;;;3.80;0.75;;;6.60;99.90;;;;;;6189642;23;20017;-86
2021/12/24 12:33:08;;;;;;;4.88;0.60;;;6.60;99.90;;;;;;6188376;23;20025;-85
2021/12/24 12:35:45;;;;;;;3.85;1.25;;;6.60;99.90;;;;;;6187854;23;20028;-86
2021/12/24 12:38:30;;;;;;;4.28;0.68;;;6.70;99.90;;;;;;6212592;23;20384;-85
2021/12/24 12:41:24;;;;;;;3.25;0.80;;;6.70;99.90;;;;;;6214285;23;20070;-85
2021/12/24 12:43:52;;;;;;;5.85;1.00;;;6.70;99.90;;;;;;6214755;23;20024;-85
2021/12/24 12:46:25;;;;;;;4.78;0.80;;;6.70;99.90;;;;;;6187587;23;20025;-86
2021/12/24 12:48:53;;;;;;;5.70;0.80;;;6.60;99.90;;;;;;6213073;23;20024;-86
2021/12/24 12:51:41;;;;;;;3.25;0.95;;;6.60;99.90;;;;;;6187473;23;20107;-85
2021/12/24 12:54:37;;;;;;;6.13;1.58;;;6.60;99.90;;;;;;6214333;23;20025;-86
2021/12/24 12:57:15;;;;;;;4.65;0.68;;;6.70;99.90;;;;;;6187503;23;20021;-85
2021/12/24 13:00:07;;;;;;;5.65;0.85;;;6.70;99.90;;;;;;6214223;23;20028;-86
2021/12/24 13:02:59;;;;;;;4.80;0.73;;;6.80;99.90;;;;;;6187372;23;20056;-86
2021/12/24 13:05:28;;;;;;;5.05;1.08;;;6.80;99.90;;;;;;6187061;23;20025;-85
2021/12/24 13:07:59;;;;;;;4.43;0.60;;;6.80;99.90;;;;;;6187898;23;20025;-85
2021/12/24 13:10:26;;;;;;;3.33;0.70;;;6.90;99.90;;;;;;6191329;23;20072;-85
2021/12/24 13:13:03;;;;;;;2.58;0.80;;;6.90;99.90;;;;;;6187169;23;20051;-85
2021/12/24 13:15:29;;;;;;;4.53;0.80;;;6.80;99.90;;;;;;6186864;23;20102;-85
2021/12/24 13:17:59;;;;;;;3.92;0.63;;;6.80;99.90;;;;;;6186751;23;20107;-85
2021/12/24 13:20:44;;;;;;;4.10;1.52;;;6.80;99.90;;;;;;6214045;23;20032;-86
2021/12/24 13:23:23;;;;;;;4.57;0.60;;;6.80;99.90;;;;;;6190407;23;20330;-85
2021/12/24 13:25:49;;;;;;;5.63;0.77;;;6.70;99.90;;;;;;6186345;23;20024;-86
2021/12/24 13:28:14;;;;;;;4.82;0.65;;;6.70;99.90;;;;;;6209295;23;20031;-86
2021/12/24 13:30:40;;;;;;;3.25;0.60;;;6.70;99.90;;;;;;6187335;23;20526;-86
2021/12/24 13:33:08;;;;;;;6.68;0.73;;;6.60;99.90;;;;;;6188451;23;20020;-86
2021/12/24 13:35:42;;;;;;;2.17;0.50;;;6.60;99.90;;;;;;6189185;23;20360;-87
2021/12/24 13:38:28;;;;;;;5.65;1.15;;;6.60;99.90;;;;;;6214706;23;20020;-86
2021/12/24 13:41:03;;;;;;;4.40;0.65;;;6.50;99.90;;;;;;6189228;23;20036;-85
2021/12/24 13:43:31;;;;;;;4.88;0.70;;;6.40;99.90;;;;;;6189057;23;20028;-86
2021/12/24 13:46:09;;;;;;;5.15;0.60;;;6.30;99.90;;;;;;6189217;23;20066;-85
2021/12/24 13:49:07;;;;;;;5.55;0.57;;;6.20;99.90;;;;;;6189333;23;20163;-86
2021/12/24 13:56:41;;;;;;;;;;;6.20;99.90;;;;;;6162348;23;20100;-86
2021/12/24 13:59:08;;;;;;;5.18;0.75;;;6.10;99.90;;;;;;6160061;23;19957;-86
2021/12/24 14:01:34;;;;;;;3.00;0.60;;;6.10;99.90;;;;;;6159302;23;20033;-86
2021/12/24 14:04:04;;;;;;;5.38;0.70;;;6.10;99.90;;;;;;6134565;23;20024;-86
2021/12/24 14:06:34;;;;;;;5.60;0.55;;;6.10;99.90;;;;;;6158749;23;20361;-86
2021/12/24 14:09:24;;;;;;;6.68;0.80;;;6.10;99.90;;;;;;6185394;23;20075;-86
2021/12/24 14:11:52;;;;;;;4.72;0.57;;;6.10;99.90;;;;;;6158993;23;20025;-86
2021/12/24 14:14:32;;;;;;;5.25;0.80;;;6.00;99.90;;;;;;6158903;23;20021;-85
2021/12/24 14:22:24;;;;;;;12.82;1.65;;;6.00;99.90;;;;;;6186430;23;20021;-85
2021/12/24 14:25:10;;;;;;;5.82;2.05;;;6.00;99.90;;;;;;6166514;23;20031;-85
2021/12/24 14:27:39;;;;;;;9.48;1.00;;;6.00;99.90;;;;;;6138906;23;20020;-86
2021/12/24 14:30:25;;;;;;;7.30;0.80;;;6.00;99.90;;;;;;6158756;23;20040;-86
2021/12/24 14:32:51;;;;;;;6.35;0.82;;;5.90;99.90;;;;;;6158339;23;20021;-86
2021/12/24 14:35:26;;;;;;;5.05;0.90;;;6.00;99.90;;;;;;6185796;23;20064;-86
2021/12/24 14:37:55;;;;;;;;;;;6.00;99.90;;;;;;6159468;23;20523;-86
2021/12/24 14:40:22;;;;;;;7.35;0.90;;;5.90;99.90;;;;;;6158938;23;19959;-86
2021/12/24 14:42:50;;;;;;;4.35;0.90;;;5.90;99.90;;;;;;6158749;23;20025;-85